Time;durP1;ratioP1;P1;durP2;ratioP2;P2;SDS_P1;SDS_P2;PMS_P1;PMS_P2;Temp;Humidity;BMP_temperature;BMP_pressure;BME280_temperature;BME280_humidity;BME280_pressure;Samples;Min_cycle;Max_cycle;Signal;HPM_P1;HPM_P2
2021/03/19 00:01:45;;;;;;;0.70;0.60;;;3.20;99.90;;;3.58;100.00;-20779.47;5026770;28;20280;-68
2021/03/19 00:04:12;;;;;;;0.70;0.60;;;3.00;99.90;;;3.54;100.00;-20778.34;5031476;28;20308;-68
2021/03/19 00:06:39;;;;;;;0.70;0.60;;;2.90;99.90;;;3.48;100.00;-20776.66;5033328;28;20194;-68
2021/03/19 00:09:09;;;;;;;0.70;0.60;;;2.80;99.90;;;3.43;100.00;-20775.28;5033232;28;20190;-68
2021/03/19 00:11:37;;;;;;;0.70;0.60;;;2.80;99.90;;;3.66;100.00;-20781.69;5032507;28;20673;-66
2021/03/19 00:14:07;;;;;;;0.70;0.60;;;2.90;99.90;;;3.71;100.00;-20783.09;5019148;28;20198;-68
2021/03/19 00:16:36;;;;;;;0.70;0.60;;;3.00;99.90;;;3.58;100.00;-20779.47;5044701;28;20186;-67
2021/03/19 00:19:05;;;;;;;0.70;0.57;;;2.90;99.90;;;3.48;100.00;-20776.81;5017237;28;20210;-68
2021/03/19 00:21:33;;;;;;;0.70;0.60;;;2.80;99.90;;;3.43;100.00;-20775.28;5027672;28;20197;-68
2021/03/19 00:24:00;;;;;;;0.70;0.52;;;2.80;99.90;;;3.30;100.00;-20771.94;5013438;28;20266;-68
2021/03/19 00:26:27;;;;;;;0.63;0.50;;;2.70;99.90;;;3.27;100.00;-20771.09;5017737;28;20312;-68
2021/03/19 00:28:54;;;;;;;0.70;0.60;;;2.60;99.90;;;3.19;100.00;-20768.72;5031678;28;20190;-67
2021/03/19 00:31:21;;;;;;;0.70;0.60;;;2.60;99.90;;;3.17;100.00;-20768.31;5032185;28;20191;-67
2021/03/19 00:33:50;;;;;;;0.70;0.60;;;2.60;99.90;;;3.10;100.00;-20766.50;5031957;28;20300;-68
2021/03/19 00:36:17;;;;;;;0.70;0.60;;;2.50;99.90;;;3.02;100.00;-20764.13;5032843;28;20175;-67
2021/03/19 00:38:45;;;;;;;0.70;0.63;;;2.50;99.90;;;2.97;100.00;-20762.84;5064978;28;20214;-67
2021/03/19 00:41:12;;;;;;;0.70;0.60;;;2.40;99.90;;;2.97;100.00;-20762.72;5031136;28;20187;-67
2021/03/19 00:43:39;;;;;;;0.70;0.60;;;2.40;99.90;;;3.06;100.00;-20765.22;5024635;28;20249;-67
2021/03/19 00:46:07;;;;;;;0.70;0.60;;;2.50;99.90;;;2.96;100.00;-20762.59;5024490;28;20191;-68
2021/03/19 00:48:34;;;;;;;0.70;0.60;;;2.40;99.90;;;2.99;100.00;-20763.28;5032820;28;20210;-67
2021/03/19 00:51:03;;;;;;;0.70;0.60;;;2.40;99.90;;;3.11;100.00;-20766.75;5030927;28;20197;-68
2021/03/19 00:53:30;;;;;;;0.70;0.60;;;2.50;99.90;;;3.18;100.00;-20768.59;5033318;28;20197;-68
2021/03/19 00:55:57;;;;;;;0.70;0.60;;;2.60;99.90;;;3.16;100.00;-20768.03;5035680;28;20658;-68
2021/03/19 00:58:24;;;;;;;0.70;0.60;;;2.60;99.90;;;3.10;100.00;-20766.34;5036297;28;20198;-68
2021/03/19 01:00:51;;;;;;;0.70;0.60;;;2.60;99.90;;;3.13;100.00;-20767.19;5035882;28;20198;-67
2021/03/19 01:03:18;;;;;;;0.60;0.60;;;2.50;99.90;;;3.10;100.00;-20766.34;5035927;28;20214;-68
2021/03/19 01:05:48;;;;;;;0.70;0.60;;;2.50;99.90;;;3.18;100.00;-20768.59;5035516;28;20222;-67
2021/03/19 01:08:16;;;;;;;1.25;1.15;;;2.50;99.90;;;3.02;100.00;-20764.13;5036492;28;20175;-67
2021/03/19 01:10:46;;;;;;;0.70;0.60;;;2.50;99.90;;;2.96;100.00;-20762.59;5035543;28;20190;-68
2021/03/19 01:13:14;;;;;;;0.70;0.70;;;2.40;99.90;;;2.95;100.00;-20762.16;5033651;28;20269;-68
2021/03/19 01:15:42;;;;;;;0.70;0.60;;;2.40;99.90;;;2.81;100.00;-20758.53;5016050;28;20195;-68
2021/03/19 01:18:12;;;;;;;0.70;0.50;;;2.20;99.90;;;2.85;100.00;-20759.66;5021969;28;20210;-67
2021/03/19 01:20:43;;;;;;;0.70;0.60;;;2.30;99.90;;;2.64;100.00;-20753.78;5035294;28;20178;-68
2021/03/19 01:23:11;;;;;;;1.25;1.15;;;2.10;99.90;;;2.47;100.00;-20749.03;5035539;28;20701;-67
2021/03/19 01:25:41;;;;;;;0.70;0.65;;;2.00;99.90;;;2.65;100.00;-20754.06;5035009;28;20544;-67
2021/03/19 01:28:10;;;;;;;0.60;0.50;;;2.10;99.90;;;2.68;100.00;-20754.91;5034821;28;20194;-67
2021/03/19 01:30:39;;;;;;;0.70;0.60;;;2.10;99.90;;;2.73;100.00;-20756.31;5033865;28;20680;-67
2021/03/19 01:33:08;;;;;;;0.70;0.60;;;2.20;99.90;;;2.60;100.00;-20752.66;5035480;28;20218;-67
2021/03/19 01:35:38;;;;;;;0.68;0.60;;;2.00;99.90;;;2.48;100.00;-20749.31;5034653;28;20194;-67
2021/03/19 01:38:06;;;;;;;0.70;0.65;;;1.90;99.90;;;2.39;100.00;-20747.09;5034314;28;20206;-67
2021/03/19 01:40:37;;;;;;;0.70;0.60;;;1.80;99.90;;;2.12;100.00;-20739.69;5034931;28;20202;-67
2021/03/19 01:43:09;;;;;;;0.70;0.63;;;1.60;99.90;;;1.93;100.00;-20734.53;5033805;28;20697;-67
2021/03/19 01:46:33;;;;;;;0.70;0.60;;;1.50;99.90;;;1.87;100.00;-20732.69;5035123;28;20192;-67
2021/03/19 01:49:58;;;;;;;0.70;0.60;;;1.40;99.90;;;1.75;100.00;-20729.50;5035637;28;20202;-67
2021/03/19 01:53:21;;;;;;;0.70;0.60;;;1.30;99.90;;;1.76;100.00;-20729.63;5026752;28;20258;-68
2021/03/19 01:56:45;;;;;;;0.70;0.70;;;1.10;99.90;;;1.74;100.00;-20729.22;5017368;28;20315;-69
2021/03/19 02:00:06;;;;;;;0.70;0.50;;;1.20;99.90;;;1.62;100.00;-20725.84;5030003;28;20681;-68
2021/03/19 02:03:29;;;;;;;0.70;0.70;;;1.10;99.90;;;1.90;100.00;-20733.53;4968360;28;20209;-67
2021/03/19 02:06:53;;;;;;;0.70;0.60;;;1.30;99.90;;;1.90;100.00;-20733.69;5033552;28;20551;-67
2021/03/19 02:10:16;;;;;;;0.70;0.60;;;1.30;99.90;;;1.93;100.00;-20734.53;5033907;28;20277;-67
2021/03/19 02:13:39;;;;;;;0.70;0.70;;;1.30;99.90;;;2.05;100.00;-20737.59;5016529;28;20260;-68
2021/03/19 02:17:04;;;;;;;0.70;0.60;;;1.40;99.90;;;2.23;100.00;-20742.63;5015145;28;20588;-67
2021/03/19 02:20:28;;;;;;;0.70;0.68;;;1.50;99.90;;;2.31;100.00;-20744.84;5015173;28;20814;-67
2021/03/19 02:23:50;;;;;;;0.70;0.60;;;1.60;99.90;;;2.48;100.00;-20749.47;5033477;28;20236;-69
2021/03/19 02:27:14;;;;;;;0.70;0.60;;;1.80;99.90;;;2.50;100.00;-20750.00;5033471;28;20288;-67
2021/03/19 02:30:37;;;;;;;0.70;0.60;;;1.80;99.90;;;2.54;100.00;-20751.00;5034553;28;20198;-68
2021/03/19 02:33:05;;;;;;;0.60;0.55;;;1.80;99.90;;;2.51;100.00;-20750.16;5032694;28;20211;-68
2021/03/19 02:35:45;;;;;;;0.60;0.60;;;1.90;99.90;;;2.48;100.00;-20749.31;5033380;28;20198;-67
2021/03/19 02:38:12;;;;;;;0.70;0.60;;;1.80;99.90;;;2.46;100.00;-20748.75;5034772;28;20212;-68
2021/03/19 02:40:39;;;;;;;0.70;0.60;;;1.80;99.90;;;2.55;100.00;-20751.41;5064955;28;20308;-67
2021/03/19 02:43:06;;;;;;;0.70;0.60;;;1.90;99.90;;;2.41;100.00;-20747.66;5033008;28;20714;-67
2021/03/19 02:45:34;;;;;;;0.70;0.70;;;1.80;99.90;;;2.30;100.00;-20744.44;5032789;28;20249;-67
2021/03/19 02:48:02;;;;;;;0.70;0.60;;;1.70;99.90;;;2.41;100.00;-20747.66;5034263;28;20293;-68
2021/03/19 02:50:30;;;;;;;0.68;0.60;;;1.80;99.90;;;2.47;100.00;-20749.03;5033649;28;20198;-68
2021/03/19 02:52:59;;;;;;;0.60;0.60;;;1.90;99.90;;;2.34;100.00;-20745.69;5032467;28;20301;-67
2021/03/19 02:55:27;;;;;;;0.70;0.60;;;1.70;99.90;;;2.30;100.00;-20744.56;5034159;28;20201;-70
2021/03/19 02:57:54;;;;;;;0.70;0.60;;;1.70;99.90;;;2.36;100.00;-20746.13;5034262;28;20206;-68
2021/03/19 03:00:25;;;;;;;1.20;1.10;;;1.80;99.90;;;2.30;100.00;-20744.56;5032280;28;20186;-67
2021/03/19 03:02:54;;;;;;;0.70;0.63;;;1.70;99.90;;;2.20;100.00;-20741.78;5014369;28;20262;-68
2021/03/19 03:05:22;;;;;;;0.70;0.60;;;1.60;99.90;;;2.07;100.00;-20738.16;5014399;28;20211;-67
2021/03/19 03:07:50;;;;;;;0.70;0.60;;;1.50;99.90;;;1.96;100.00;-20735.22;5014467;28;20701;-67
2021/03/19 03:10:20;;;;;;;0.70;0.60;;;1.40;99.90;;;1.92;100.00;-20734.09;5019821;28;20193;-67
2021/03/19 03:12:49;;;;;;;0.70;0.60;;;1.40;99.90;;;2.02;100.00;-20736.75;5033387;28;20594;-68
2021/03/19 03:15:19;;;;;;;0.70;0.60;;;1.40;99.90;;;1.92;100.00;-20734.09;5021168;28;20191;-67
2021/03/19 03:17:48;;;;;;;0.70;0.60;;;1.30;99.90;;;2.04;100.00;-20737.44;5029026;28;20636;-68
2021/03/19 03:20:22;;;;;;;0.70;0.60;;;1.40;99.90;;;2.21;100.00;-20742.06;5031937;28;20269;-68
2021/03/19 03:22:50;;;;;;;0.68;0.60;;;1.60;99.90;;;2.17;100.00;-20741.09;5033980;28;20643;-68
2021/03/19 03:25:22;;;;;;;0.60;0.60;;;1.60;99.90;;;2.21;100.00;-20742.06;5032563;28;20205;-68
2021/03/19 03:27:51;;;;;;;1.00;1.00;;;1.60;99.90;;;2.14;100.00;-20740.09;5032790;28;20218;-69
2021/03/19 03:30:35;;;;;;;0.70;0.60;;;1.60;99.90;;;2.05;100.00;-20737.59;5032705;28;20202;-68
2021/03/19 03:33:04;;;;;;;0.70;0.65;;;1.50;99.90;;;2.05;100.00;-20737.59;5032364;28;20257;-69
2021/03/19 03:35:32;;;;;;;0.70;0.60;;;1.50;99.90;;;2.01;100.00;-20736.47;5031836;28;20533;-69
2021/03/19 03:38:03;;;;;;;0.70;0.70;;;1.50;99.90;;;1.98;100.00;-20735.63;5018744;28;20208;-69
2021/03/19 03:40:34;;;;;;;0.70;0.68;;;1.40;99.90;;;1.93;100.00;-20734.53;5032198;28;20281;-69
2021/03/19 03:43:03;;;;;;;0.60;0.60;;;1.40;99.90;;;1.84;100.00;-20732.00;5031996;28;20194;-68
2021/03/19 03:45:31;;;;;;;0.70;0.60;;;1.30;99.90;;;2.00;100.00;-20736.19;5032181;28;20228;-70
2021/03/19 03:48:00;;;;;;;0.70;0.60;;;1.40;99.90;;;1.86;100.00;-20732.56;5033019;28;20209;-69
2021/03/19 03:50:29;;;;;;;0.70;0.60;;;1.30;99.90;;;1.79;100.00;-20730.59;5033542;28;20277;-68
2021/03/19 03:53:08;;;;;;;1.98;1.80;;;1.20;99.90;;;1.88;100.00;-20732.97;5032367;28;20642;-71
2021/03/19 03:55:38;;;;;;;0.75;0.70;;;1.30;99.90;;;1.88;100.00;-20733.13;5030814;28;20559;-68
2021/03/19 03:58:06;;;;;;;0.70;0.60;;;1.30;99.90;;;1.65;100.00;-20726.69;5032073;28;20225;-67
2021/03/19 04:00:34;;;;;;;0.80;0.80;;;1.10;99.90;;;1.55;100.00;-20723.91;5032176;28;20186;-68
2021/03/19 04:03:05;;;;;;;0.70;0.60;;;1.00;99.90;;;1.74;100.00;-20729.22;5032029;28;20222;-70
2021/03/19 04:05:39;;;;;;;0.70;0.60;;;1.20;99.90;;;1.63;100.00;-20726.13;5032576;28;20194;-68
2021/03/19 04:08:09;;;;;;;0.70;0.60;;;1.10;99.90;;;1.71;100.00;-20728.38;5033226;28;20584;-68
2021/03/19 04:10:37;;;;;;;0.70;0.70;;;1.10;99.90;;;1.71;100.00;-20728.38;5031729;28;20179;-68
2021/03/19 04:13:05;;;;;;;0.70;0.60;;;1.10;99.90;;;1.65;100.00;-20726.84;5025552;28;20195;-69
2021/03/19 04:15:33;;;;;;;0.60;0.60;;;1.10;99.90;;;1.55;100.00;-20724.03;5015048;28;20679;-69
2021/03/19 04:18:03;;;;;;;1.52;1.42;;;1.00;99.90;;;1.66;100.00;-20726.97;5013107;28;20230;-68
2021/03/19 04:20:32;;;;;;;0.70;0.60;;;1.10;99.90;;;1.74;100.00;-20729.22;5013471;28;20186;-68
2021/03/19 04:23:00;;;;;;;0.70;0.60;;;1.10;99.90;;;1.61;100.00;-20725.56;5032693;28;20597;-69
2021/03/19 04:25:28;;;;;;;0.82;0.82;;;1.00;99.90;;;1.51;100.00;-20722.78;5031963;28;20549;-68
2021/03/19 04:27:58;;;;;;;1.10;1.05;;;1.00;99.90;;;1.63;100.00;-20726.13;5012070;28;20198;-68
2021/03/19 04:30:30;;;;;;;0.70;0.60;;;1.00;99.90;;;1.48;100.00;-20722.09;5017757;28;20175;-68
2021/03/19 04:32:59;;;;;;;0.70;0.60;;;0.90;99.90;;;1.64;100.00;-20726.41;5034421;28;20197;-68
2021/03/19 04:35:28;;;;;;;0.63;0.55;;;1.00;99.90;;;1.64;100.00;-20726.41;5035302;28;20181;-68
2021/03/19 04:37:58;;;;;;;0.60;0.60;;;1.00;99.90;;;1.37;100.00;-20719.00;5026975;28;20206;-67
2021/03/19 04:40:27;;;;;;;0.60;0.60;;;0.80;99.90;;;1.48;100.00;-20721.94;5037032;28;20627;-68
2021/03/19 04:42:55;;;;;;;0.70;0.60;;;0.90;99.90;;;1.50;100.00;-20722.50;5034808;28;21013;-68
2021/03/19 04:45:23;;;;;;;0.68;0.60;;;0.90;99.90;;;1.61;100.00;-20725.72;5035570;28;20187;-69
2021/03/19 04:47:53;;;;;;;0.70;0.60;;;1.00;99.90;;;1.68;100.00;-20727.53;5030054;28;20191;-69
2021/03/19 04:50:22;;;;;;;0.70;0.60;;;1.10;99.90;;;1.68;100.00;-20727.53;5035214;28;20202;-69
2021/03/19 04:52:50;;;;;;;0.70;0.60;;;1.10;99.90;;;1.77;100.00;-20729.91;5022575;28;20182;-68
2021/03/19 04:55:18;;;;;;;0.70;0.70;;;1.20;99.90;;;1.85;100.00;-20732.28;5036627;28;20240;-67
2021/03/19 04:57:46;;;;;;;0.70;0.60;;;1.30;99.90;;;1.88;100.00;-20732.97;5034044;28;20267;-68
2021/03/19 05:00:15;;;;;;;0.60;0.60;;;1.30;99.90;;;1.86;100.00;-20732.56;5036456;28;20269;-67
2021/03/19 05:02:46;;;;;;;0.60;0.60;;;1.30;99.90;;;1.92;100.00;-20734.09;5033882;28;20197;-68
2021/03/19 05:05:21;;;;;;;0.70;0.60;;;1.30;99.90;;;1.89;100.00;-20733.41;5033960;28;20200;-68
2021/03/19 05:07:49;;;;;;;0.70;0.60;;;1.30;99.90;;;1.90;100.00;-20733.69;5033814;28;20201;-68
2021/03/19 05:10:20;;;;;;;0.70;0.60;;;1.30;99.90;;;2.10;100.00;-20738.97;5035790;28;20194;-67
2021/03/19 05:12:48;;;;;;;0.70;0.60;;;1.40;99.90;;;2.23;100.00;-20742.63;5033853;28;20862;-68
2021/03/19 05:15:16;;;;;;;0.70;0.60;;;1.60;99.90;;;2.28;100.00;-20744.00;5036237;28;20218;-68
2021/03/19 05:17:44;;;;;;;0.70;0.60;;;1.60;99.90;;;2.24;100.00;-20742.91;5032567;28;20198;-69
2021/03/19 05:20:14;;;;;;;0.68;0.60;;;1.50;99.90;;;2.48;100.00;-20749.31;5034874;28;20271;-68
2021/03/19 05:22:41;;;;;;;0.70;0.60;;;1.70;99.90;;;2.33;100.00;-20745.41;5032250;28;20671;-68
2021/03/19 05:25:13;;;;;;;1.20;1.10;;;1.60;99.90;;;2.39;100.00;-20747.09;5033417;28;20202;-68
2021/03/19 05:27:41;;;;;;;1.35;1.27;;;1.70;99.90;;;2.34;100.00;-20745.56;5033104;28;20442;-68
2021/03/19 05:30:14;;;;;;;0.70;0.63;;;1.70;99.90;;;2.22;100.00;-20742.19;5033151;28;20226;-69
2021/03/19 05:32:42;;;;;;;0.70;0.60;;;1.60;99.90;;;2.10;100.00;-20738.97;5033999;28;20289;-68
2021/03/19 05:35:12;;;;;;;0.60;0.60;;;1.50;99.90;;;2.14;100.00;-20740.25;5031360;28;20190;-70
2021/03/19 05:37:40;;;;;;;0.70;0.70;;;1.60;99.90;;;2.08;100.00;-20738.44;5022317;28;20201;-68
2021/03/19 05:40:20;;;;;;;0.68;0.60;;;1.50;99.90;;;1.97;100.00;-20735.34;5034076;28;20186;-68
2021/03/19 05:42:47;;;;;;;0.70;0.65;;;1.40;99.90;;;2.08;100.00;-20738.44;5024820;28;20273;-68
2021/03/19 05:45:26;;;;;;;0.68;0.60;;;1.50;99.90;;;2.01;100.00;-20736.47;5032843;28;20198;-69
2021/03/19 05:47:56;;;;;;;0.60;0.60;;;1.40;99.90;;;2.15;100.00;-20740.38;5035305;28;20196;-68
2021/03/19 05:50:29;;;;;;;0.70;0.60;;;1.60;99.90;;;2.18;100.00;-20741.38;5034348;28;20214;-69
2021/03/19 05:53:03;;;;;;;0.65;0.60;;;1.70;99.90;;;2.23;100.00;-20742.47;5035137;28;20197;-69
2021/03/19 05:55:35;;;;;;;0.70;0.68;;;1.70;99.90;;;2.23;100.00;-20742.63;5036038;28;20171;-68
2021/03/19 05:58:08;;;;;;;0.70;0.70;;;1.70;99.90;;;2.30;100.00;-20744.56;5035910;28;20210;-68
2021/03/19 06:00:35;;;;;;;1.23;1.13;;;1.80;99.90;;;2.34;100.00;-20745.69;5034468;28;20635;-68
2021/03/19 06:03:03;;;;;;;1.42;1.33;;;1.80;99.90;;;2.28;100.00;-20744.00;5034942;28;20218;-68
2021/03/19 06:05:31;;;;;;;0.63;0.57;;;1.70;99.90;;;2.16;100.00;-20740.66;5035128;28;20197;-68
2021/03/19 06:08:05;;;;;;;0.90;0.90;;;1.60;99.90;;;2.26;100.00;-20743.47;5035619;28;20666;-68
2021/03/19 06:10:35;;;;;;;0.60;0.60;;;1.70;99.90;;;2.22;100.00;-20742.19;5035408;28;20184;-68
2021/03/19 06:13:20;;;;;;;0.60;0.50;;;1.70;99.90;;;2.18;100.00;-20741.22;5027900;28;20274;-68
2021/03/19 06:15:50;;;;;;;0.60;0.60;;;1.70;99.90;;;2.08;100.00;-20738.56;5015664;28;20183;-68
2021/03/19 06:18:25;;;;;;;0.68;0.55;;;1.50;99.90;;;2.08;100.00;-20738.56;5013712;28;20227;-68
2021/03/19 06:21:01;;;;;;;0.70;0.60;;;1.50;99.90;;;2.11;100.00;-20739.28;5015194;28;20185;-67
2021/03/19 06:23:28;;;;;;;0.70;0.60;;;1.50;99.90;;;2.17;100.00;-20740.94;5015227;28;20225;-68
2021/03/19 06:26:03;;;;;;;0.70;0.60;;;1.60;99.90;;;2.24;100.00;-20742.91;5014854;28;20195;-68
2021/03/19 06:28:34;;;;;;;0.70;0.68;;;1.70;99.90;;;2.29;100.00;-20744.28;5015611;28;20178;-68
2021/03/19 06:31:21;;;;;;;0.70;0.60;;;1.70;99.90;;;2.38;100.00;-20746.81;5052745;28;20213;-68
2021/03/19 06:34:05;;;;;;;0.70;0.70;;;1.80;99.90;;;2.32;100.00;-20745.13;5058801;28;20236;-68
2021/03/19 06:36:50;;;;;;;0.60;0.60;;;1.80;99.90;;;2.34;100.00;-20745.69;5033750;28;20194;-69
2021/03/19 06:39:24;;;;;;;0.65;0.60;;;1.80;99.90;;;2.39;100.00;-20747.09;5034540;28;20209;-68
2021/03/19 06:42:12;;;;;;;0.68;0.60;;;1.80;99.90;;;2.39;100.00;-20747.09;5033186;28;20209;-68
2021/03/19 06:44:41;;;;;;;0.70;0.60;;;1.80;99.90;;;2.47;100.00;-20749.03;5014889;28;20176;-68
2021/03/19 06:47:16;;;;;;;1.00;1.00;;;1.90;99.90;;;2.44;100.00;-20748.34;5013448;28;20229;-67
2021/03/19 06:49:54;;;;;;;0.70;0.60;;;1.90;99.90;;;2.51;100.00;-20750.31;5013260;28;20543;-68
2021/03/19 06:52:28;;;;;;;0.70;0.50;;;1.90;99.90;;;2.62;100.00;-20753.38;5014261;28;20647;-69
2021/03/19 06:55:35;;;;;;;0.70;0.70;;;2.00;99.90;;;2.69;100.00;-20755.19;5015631;28;20221;-68
2021/03/19 06:58:03;;;;;;;0.60;0.60;;;2.20;99.90;;;2.70;100.00;-20755.47;5014858;28;20191;-67
2021/03/19 07:00:38;;;;;;;0.70;0.60;;;2.10;99.90;;;2.89;100.00;-20760.75;5014469;28;20655;-67
2021/03/19 07:03:39;;;;;;;0.85;0.85;;;2.30;99.90;;;2.83;100.00;-20758.94;5014449;28;20601;-68
2021/03/19 07:06:39;;;;;;;0.70;0.60;;;2.20;99.90;;;3.07;100.00;-20765.66;5014614;28;20190;-68
2021/03/19 07:09:20;;;;;;;0.70;0.60;;;2.40;99.90;;;2.98;100.00;-20763.00;5004172;28;20210;-68
2021/03/19 07:12:26;;;;;;;0.70;0.60;;;2.40;99.90;;;3.02;100.00;-20764.13;5017784;28;20194;-68
2021/03/19 07:15:35;;;;;;;0.70;0.60;;;2.40;99.90;;;2.95;100.00;-20762.31;5014640;28;20179;-67
2021/03/19 07:18:12;;;;;;;1.00;0.82;;;2.40;99.90;;;3.23;100.00;-20769.84;5013753;28;20241;-68
2021/03/19 07:21:42;;;;;;;0.70;0.60;;;2.60;99.90;;;3.41;100.00;-20774.84;5014352;28;20686;-68
2021/03/19 07:24:18;;;;;;;1.08;0.98;;;2.80;99.90;;;3.41;100.00;-20774.72;5014204;28;20183;-68
2021/03/19 07:26:51;;;;;;;0.70;0.60;;;2.80;99.90;;;3.52;100.00;-20777.78;5014320;28;20201;-69
2021/03/19 07:29:49;;;;;;;0.70;0.70;;;2.90;99.90;;;3.65;100.00;-20781.41;5019159;28;20178;-68
2021/03/19 07:33:08;;;;;;;0.70;0.60;;;3.00;99.90;;;3.92;100.00;-20788.66;5033672;28;20183;-68
2021/03/19 07:36:06;;;;;;;0.70;0.60;;;3.40;99.90;;;4.20;100.00;-20796.47;5016604;28;20206;-68
2021/03/19 07:39:05;;;;;;;0.70;0.60;;;3.50;99.90;;;4.13;100.00;-20794.38;5049057;28;20195;-68
2021/03/19 07:41:50;;;;;;;0.70;0.60;;;3.40;99.90;;;4.57;100.00;-20806.50;5033595;28;20189;-68
2021/03/19 07:44:36;;;;;;;0.70;0.55;;;3.90;99.90;;;5.02;100.00;-20818.75;5031992;28;20507;-68
2021/03/19 07:47:27;;;;;;;0.70;0.60;;;4.40;99.90;;;5.05;100.00;-20819.72;5032360;28;20178;-69
2021/03/19 07:50:20;;;;;;;0.70;0.60;;;4.30;99.90;;;5.16;100.00;-20822.66;5033701;28;20469;-68
2021/03/19 07:53:30;;;;;;;0.90;0.90;;;4.30;99.90;;;5.46;100.00;-20830.72;5033705;28;20805;-68
2021/03/19 07:56:17;;;;;;;0.70;0.60;;;4.60;99.90;;;5.17;100.00;-20822.78;5030985;28;20884;-67
2021/03/19 07:58:53;;;;;;;0.70;0.60;;;4.70;99.90;;;5.39;100.00;-20828.91;5027092;28;20998;-67
2021/03/19 08:01:31;;;;;;;1.03;0.83;;;4.70;99.90;;;5.76;100.00;-20839.06;5033284;28;20423;-69
2021/03/19 08:04:20;;;;;;;0.70;0.60;;;4.80;99.90;;;6.32;100.00;-20854.09;5032140;28;20806;-68
2021/03/19 08:06:52;;;;;;;0.70;0.70;;;5.20;99.90;;;6.49;100.00;-20858.81;5033555;28;20425;-68
2021/03/19 08:09:39;;;;;;;0.70;0.60;;;5.70;99.90;;;6.94;100.00;-20871.19;5033205;28;20761;-67
2021/03/19 08:12:15;;;;;;;1.00;1.00;;;5.80;99.90;;;7.41;100.00;-20883.97;5031647;28;20842;-69
2021/03/19 08:15:05;;;;;;;0.70;0.60;;;6.00;99.90;;;8.15;100.00;-20904.09;5013613;28;20908;-67
2021/03/19 08:17:46;;;;;;;0.70;0.70;;;6.20;99.90;;;9.19;100.00;-20932.25;5013137;28;20410;-67
2021/03/19 08:20:59;;;;;;;0.80;0.70;;;6.80;99.90;;;8.14;100.00;-20903.69;5013744;28;20433;-67
2021/03/19 08:23:53;;;;;;;0.70;0.60;;;6.90;99.90;;;9.02;100.00;-20927.66;5013610;28;20508;-68
2021/03/19 08:26:39;;;;;;;0.73;0.67;;;7.10;99.90;;;9.83;100.00;-20949.56;5012017;28;20439;-67
2021/03/19 08:29:19;;;;;;;0.70;0.70;;;7.30;99.90;;;9.83;100.00;-20949.69;5013497;28;20417;-67
2021/03/19 08:31:51;;;;;;;2.83;1.67;;;7.40;99.90;;;9.03;100.00;-20927.81;5030649;28;20937;-68
2021/03/19 08:34:32;;;;;;;0.97;0.90;;;6.70;99.90;;;8.88;100.00;-20923.78;5033094;28;20538;-68
2021/03/19 08:36:59;;;;;;;0.80;0.80;;;6.90;99.90;;;8.45;100.00;-20912.13;5032103;28;20913;-68
2021/03/19 08:39:35;;;;;;;0.70;0.60;;;7.00;99.90;;;9.57;100.00;-20942.63;5032866;28;20465;-68
2021/03/19 08:42:11;;;;;;;0.70;0.60;;;7.20;99.90;;;9.50;100.00;-20940.69;5031745;28;21022;-67
2021/03/19 08:44:40;;;;;;;0.70;0.60;;;7.10;99.90;;;9.37;100.00;-20937.09;5013250;28;20875;-67
2021/03/19 08:47:22;;;;;;;0.70;0.70;;;7.30;99.90;;;9.61;100.00;-20943.75;5013453;28;20521;-67
2021/03/19 08:49:52;;;;;;;0.80;0.70;;;7.50;99.90;;;9.58;100.00;-20942.78;5011947;28;20931;-66
2021/03/19 08:52:32;;;;;;;0.70;0.60;;;7.40;99.90;;;10.54;100.00;-20968.94;5011889;28;20919;-69
2021/03/19 08:55:26;;;;;;;0.70;0.60;;;7.70;99.90;;;9.74;100.00;-20947.06;5013099;28;20460;-69
2021/03/19 08:57:57;;;;;;;0.70;0.60;;;7.50;99.90;;;9.94;100.00;-20952.59;5012963;28;20455;-67
2021/03/19 09:00:52;;;;;;;1.00;0.90;;;7.80;99.90;;;10.12;100.00;-20957.44;5011872;28;20437;-67
2021/03/19 09:03:55;;;;;;;0.70;0.60;;;8.10;99.90;;;10.77;100.00;-20975.03;5012739;28;20452;-67
2021/03/19 09:06:30;;;;;;;1.37;1.27;;;8.50;99.90;;;11.31;100.00;-20989.69;5013428;28;20437;-68
2021/03/19 09:09:38;;;;;;;0.77;0.60;;;8.70;99.90;;;11.42;100.00;-20992.56;5013413;28;20517;-67
2021/03/19 09:12:24;;;;;;;0.70;0.60;;;8.30;99.90;;;11.34;100.00;-20990.50;5018340;28;20439;-66
2021/03/19 09:15:23;;;;;;;0.70;0.60;;;8.50;99.90;;;9.64;100.00;-20944.44;5033551;28;20435;-67
2021/03/19 09:18:36;;;;;;;1.73;1.43;;;8.30;99.90;;;9.01;100.00;-20927.38;5035730;28;20442;-67
2021/03/19 09:21:27;;;;;;;0.70;0.70;;;7.60;99.90;;;7.86;100.00;-20896.03;5036800;28;20434;-69
2021/03/19 09:24:15;;;;;;;0.70;0.60;;;6.70;99.90;;;9.07;100.00;-20928.91;5036102;28;20930;-69
2021/03/19 09:26:52;;;;;;;0.70;0.60;;;7.60;99.90;;;10.21;100.00;-20959.78;5029588;28;20451;-69
2021/03/19 09:29:32;;;;;;;0.80;0.60;;;8.40;99.90;;;10.35;100.00;-20963.81;5036442;28;20459;-69
2021/03/19 09:32:17;;;;;;;1.53;1.07;;;8.80;99.90;;;10.10;100.00;-20956.88;5035461;28;20409;-69
2021/03/19 09:35:37;;;;;;;0.70;0.60;;;8.50;99.90;;;10.45;100.00;-20966.44;5035431;28;20462;-68
2021/03/19 09:38:13;;;;;;;0.80;0.70;;;8.80;99.90;;;11.03;100.00;-20982.22;5035798;28;20464;-69
2021/03/19 09:40:52;;;;;;;1.03;0.93;;;8.60;99.40;;;10.84;100.00;-20976.94;5034278;28;20452;-69
2021/03/19 09:43:42;;;;;;;0.70;0.60;;;8.90;96.80;;;10.53;100.00;-20968.66;5031332;28;20847;-69
2021/03/19 09:46:25;;;;;;;0.70;0.60;;;9.20;94.90;;;11.37;100.00;-20991.31;5014725;28;20489;-70
2021/03/19 09:49:03;;;;;;;0.70;0.70;;;9.60;96.50;;;11.54;100.00;-20996.03;5019469;28;20445;-68
2021/03/19 09:51:43;;;;;;;0.80;0.73;;;9.70;92.40;;;11.66;100.00;-20999.22;5016696;28;20904;-67
2021/03/19 09:54:32;;;;;;;0.80;0.70;;;9.80;87.90;;;11.40;100.00;-20992.16;5017325;28;20420;-68
2021/03/19 09:57:20;;;;;;;0.70;0.60;;;10.20;87.10;;;12.43;100.00;-21020.06;5015874;28;20933;-67
2021/03/19 09:59:55;;;;;;;1.30;0.90;;;9.60;84.50;;;12.38;100.00;-21018.53;5033454;28;20548;-69
2021/03/19 10:02:27;;;;;;;0.70;0.60;;;10.40;78.90;;;13.16;100.00;-21039.66;5035285;28;20419;-69
2021/03/19 10:05:09;;;;;;;0.87;0.73;;;10.10;70.70;;;12.77;100.00;-21029.16;5034103;28;20821;-68
2021/03/19 10:07:40;;;;;;;0.83;0.80;;;10.50;68.00;;;12.42;100.00;-21019.66;5035443;28;20905;-69
2021/03/19 10:10:25;;;;;;;0.80;0.77;;;10.50;65.70;;;11.94;100.00;-21006.81;5035197;28;20464;-69
2021/03/19 10:13:09;;;;;;;0.80;0.70;;;11.00;60.30;;;12.52;100.00;-21022.41;5034751;28;20403;-70
2021/03/19 10:15:37;;;;;;;0.70;0.60;;;10.60;57.30;;;12.80;100.00;-21030.00;5035113;28;20423;-69
2021/03/19 10:18:07;;;;;;;0.70;0.60;;;10.50;64.80;;;11.77;100.00;-21002.09;5035085;28;20473;-69
2021/03/19 10:20:37;;;;;;;0.70;0.60;;;10.00;56.30;;;11.49;100.00;-20994.50;5035888;28;20994;-70
2021/03/19 10:23:15;;;;;;;0.70;0.63;;;8.90;50.10;;;11.49;100.00;-20994.50;5034929;28;20456;-69
2021/03/19 10:25:45;;;;;;;0.80;0.70;;;9.40;57.30;;;12.12;100.00;-21011.50;5033216;28;20490;-69
2021/03/19 10:28:25;;;;;;;0.70;0.60;;;10.10;54.10;;;12.37;100.00;-21018.41;5034667;28;20410;-70
2021/03/19 10:30:56;;;;;;;0.70;0.60;;;10.20;54.80;;;13.17;100.00;-21039.94;5034745;28;20413;-70
2021/03/19 10:33:30;;;;;;;0.70;0.70;;;10.70;55.50;;;12.17;100.00;-21013.03;5034599;28;20453;-69
2021/03/19 10:36:01;;;;;;;0.80;0.70;;;10.30;50.20;;;11.11;100.00;-20984.41;5034778;28;20446;-69
2021/03/19 10:38:36;;;;;;;0.70;0.60;;;9.30;48.60;;;11.06;100.00;-20982.91;5034532;28;20463;-69
2021/03/19 10:41:18;;;;;;;0.70;0.60;;;9.60;48.80;;;11.21;100.00;-20987.03;5034351;28;20808;-69
2021/03/19 10:43:52;;;;;;;0.70;0.60;;;9.30;48.50;;;11.83;100.00;-21003.75;5033240;28;20496;-69
2021/03/19 10:46:30;;;;;;;0.70;0.60;;;9.80;47.00;;;11.51;100.00;-20995.19;5034639;28;20923;-69
2021/03/19 10:49:03;;;;;;;0.80;0.70;;;9.60;46.70;;;11.55;100.00;-20996.16;5033280;28;20460;-69
2021/03/19 10:51:42;;;;;;;0.70;0.60;;;9.70;43.40;;;11.79;100.00;-21002.78;5034365;28;20432;-69
2021/03/19 10:54:19;;;;;;;0.70;0.60;;;10.10;45.50;;;12.35;100.00;-21017.72;5034903;28;20413;-70
2021/03/19 10:56:53;;;;;;;0.70;0.60;;;10.90;44.00;;;12.14;100.00;-21012.19;5033279;28;20780;-67
2021/03/19 10:59:33;;;;;;;0.70;0.60;;;10.80;38.00;;;13.08;100.00;-21037.59;5034326;28;20555;-69
2021/03/19 11:02:23;;;;;;;0.70;0.60;;;11.30;38.40;;;13.81;100.00;-21057.16;5034500;28;20420;-68
2021/03/19 11:05:12;;;;;;;0.70;0.60;;;11.60;36.80;;;15.36;100.00;-21099.13;5034343;28;20451;-68